sensor_id;sensor_type;location;lat;lon;timestamp;temperature;humidity
52575;DHT22;38468;48.114;-1.684;2023-03-03T00:00:09;6.50;69.90
52575;DHT22;38468;48.114;-1.684;2023-03-03T00:02:10;6.40;69.90
52575;DHT22;38468;48.114;-1.684;2023-03-03T00:04:10;6.40;69.90
52575;DHT22;38468;48.114;-1.684;2023-03-03T00:06:13;6.40;70.00
52575;DHT22;38468;48.114;-1.684;2023-03-03T00:08:14;6.40;70.00
52575;DHT22;38468;48.114;-1.684;2023-03-03T00:10:15;6.40;70.00
52575;DHT22;38468;48.114;-1.684;2023-03-03T00:12:29;6.50;70.00
52575;DHT22;38468;48.114;-1.684;2023-03-03T00:14:31;6.40;69.80
52575;DHT22;38468;48.114;-1.684;2023-03-03T00:16:44;6.50;69.90
52575;DHT22;38468;48.114;-1.684;2023-03-03T00:18:46;6.50;69.70
52575;DHT22;38468;48.114;-1.684;2023-03-03T00:20:56;6.40;69.90
52575;DHT22;38468;48.114;-1.684;2023-03-03T00:25:29;6.40;70.10
52575;DHT22;38468;48.114;-1.684;2023-03-03T00:27:34;6.40;70.00
52575;DHT22;38468;48.114;-1.684;2023-03-03T00:29:45;6.40;70.00
52575;DHT22;38468;48.114;-1.684;2023-03-03T00:31:47;6.40;69.80
52575;DHT22;38468;48.114;-1.684;2023-03-03T00:33:54;6.40;70.00
52575;DHT22;38468;48.114;-1.684;2023-03-03T00:35:56;6.40;70.00
52575;DHT22;38468;48.114;-1.684;2023-03-03T00:37:59;6.40;69.90
52575;DHT22;38468;48.114;-1.684;2023-03-03T00:40:10;6.40;69.90
52575;DHT22;38468;48.114;-1.684;2023-03-03T00:42:15;6.40;69.80
52575;DHT22;38468;48.114;-1.684;2023-03-03T00:46:41;6.40;70.00
52575;DHT22;38468;48.114;-1.684;2023-03-03T00:48:42;6.40;70.00
52575;DHT22;38468;48.114;-1.684;2023-03-03T00:50:43;6.30;70.00
52575;DHT22;38468;48.114;-1.684;2023-03-03T00:53:01;6.40;70.00
52575;DHT22;38468;48.114;-1.684;2023-03-03T00:55:02;6.40;70.00
52575;DHT22;38468;48.114;-1.684;2023-03-03T00:57:03;6.30;69.90
52575;DHT22;38468;48.114;-1.684;2023-03-03T00:59:04;6.20;70.10
52575;DHT22;38468;48.114;-1.684;2023-03-03T01:01:05;6.30;70.10
52575;DHT22;38468;48.114;-1.684;2023-03-03T01:03:08;6.40;70.00
52575;DHT22;38468;48.114;-1.684;2023-03-03T01:05:09;6.40;69.90
52575;DHT22;38468;48.114;-1.684;2023-03-03T01:07:12;6.40;69.80
52575;DHT22;38468;48.114;-1.684;2023-03-03T01:09:12;6.40;69.80
52575;DHT22;38468;48.114;-1.684;2023-03-03T01:11:20;6.30;69.90
52575;DHT22;38468;48.114;-1.684;2023-03-03T01:13:24;6.30;70.00
52575;DHT22;38468;48.114;-1.684;2023-03-03T01:15:25;6.30;69.90
52575;DHT22;38468;48.114;-1.684;2023-03-03T01:17:26;6.30;70.00
52575;DHT22;38468;48.114;-1.684;2023-03-03T01:19:26;6.30;69.90
52575;DHT22;38468;48.114;-1.684;2023-03-03T01:21:27;6.30;70.00
52575;DHT22;38468;48.114;-1.684;2023-03-03T01:23:27;6.30;70.00
52575;DHT22;38468;48.114;-1.684;2023-03-03T01:25:28;6.30;69.90
52575;DHT22;38468;48.114;-1.684;2023-03-03T01:27:30;6.20;70.00
52575;DHT22;38468;48.114;-1.684;2023-03-03T01:29:30;6.20;70.00
52575;DHT22;38468;48.114;-1.684;2023-03-03T01:31:31;6.20;70.10
52575;DHT22;38468;48.114;-1.684;2023-03-03T01:33:33;6.20;70.00
52575;DHT22;38468;48.114;-1.684;2023-03-03T01:35:33;6.10;70.10
52575;DHT22;38468;48.114;-1.684;2023-03-03T01:37:35;6.10;70.10
52575;DHT22;38468;48.114;-1.684;2023-03-03T01:39:36;6.10;70.10
52575;DHT22;38468;48.114;-1.684;2023-03-03T01:41:37;6.10;70.10
52575;DHT22;38468;48.114;-1.684;2023-03-03T01:43:43;6.10;70.10
52575;DHT22;38468;48.114;-1.684;2023-03-03T01:50:06;6.20;70.00
52575;DHT22;38468;48.114;-1.684;2023-03-03T01:52:18;6.10;70.00
52575;DHT22;38468;48.114;-1.684;2023-03-03T01:54:37;6.10;70.10
52575;DHT22;38468;48.114;-1.684;2023-03-03T01:56:39;6.10;70.10
52575;DHT22;38468;48.114;-1.684;2023-03-03T01:58:52;6.10;70.10
52575;DHT22;38468;48.114;-1.684;2023-03-03T02:00:58;6.10;70.20
52575;DHT22;38468;48.114;-1.684;2023-03-03T02:03:00;6.00;70.20
52575;DHT22;38468;48.114;-1.684;2023-03-03T02:05:01;6.00;70.20
52575;DHT22;38468;48.114;-1.684;2023-03-03T02:07:05;6.00;70.20
52575;DHT22;38468;48.114;-1.684;2023-03-03T02:11:35;6.10;70.20
52575;DHT22;38468;48.114;-1.684;2023-03-03T02:13:36;6.00;70.20
52575;DHT22;38468;48.114;-1.684;2023-03-03T02:15:37;6.00;70.20
52575;DHT22;38468;48.114;-1.684;2023-03-03T02:17:38;6.00;70.10
52575;DHT22;38468;48.114;-1.684;2023-03-03T02:21:39;6.00;70.10
52575;DHT22;38468;48.114;-1.684;2023-03-03T02:27:56;6.00;70.10
52575;DHT22;38468;48.114;-1.684;2023-03-03T02:29:56;5.90;70.20
52575;DHT22;38468;48.114;-1.684;2023-03-03T02:31:57;5.90;70.20
52575;DHT22;38468;48.114;-1.684;2023-03-03T02:33:58;5.90;70.40
52575;DHT22;38468;48.114;-1.684;2023-03-03T02:35:59;5.90;70.50
52575;DHT22;38468;48.114;-1.684;2023-03-03T02:38:26;5.90;70.40
52575;DHT22;38468;48.114;-1.684;2023-03-03T02:40:30;5.90;70.30
52575;DHT22;38468;48.114;-1.684;2023-03-03T02:42:33;5.80;70.50
52575;DHT22;38468;48.114;-1.684;2023-03-03T02:44:34;5.80;70.50
52575;DHT22;38468;48.114;-1.684;2023-03-03T02:46:37;5.80;70.50
52575;DHT22;38468;48.114;-1.684;2023-03-03T02:48:38;5.90;70.50
52575;DHT22;38468;48.114;-1.684;2023-03-03T02:50:39;5.80;70.50
52575;DHT22;38468;48.114;-1.684;2023-03-03T02:52:40;5.90;70.40
52575;DHT22;38468;48.114;-1.684;2023-03-03T02:54:40;5.80;70.50
52575;DHT22;38468;48.114;-1.684;2023-03-03T02:56:41;5.60;70.60
52575;DHT22;38468;48.114;-1.684;2023-03-03T02:58:42;5.50;70.80
52575;DHT22;38468;48.114;-1.684;2023-03-03T03:00:42;5.60;70.90
52575;DHT22;38468;48.114;-1.684;2023-03-03T03:02:43;5.60;70.90
52575;DHT22;38468;48.114;-1.684;2023-03-03T03:04:44;5.60;70.80
52575;DHT22;38468;48.114;-1.684;2023-03-03T03:06:44;5.50;71.10
52575;DHT22;38468;48.114;-1.684;2023-03-03T03:08:45;5.50;71.10
52575;DHT22;38468;48.114;-1.684;2023-03-03T03:10:46;5.50;71.20
52575;DHT22;38468;48.114;-1.684;2023-03-03T03:12:46;5.50;71.00
52575;DHT22;38468;48.114;-1.684;2023-03-03T03:14:47;5.50;70.90
52575;DHT22;38468;48.114;-1.684;2023-03-03T03:16:48;5.60;70.80
52575;DHT22;38468;48.114;-1.684;2023-03-03T03:18:48;5.60;70.90
52575;DHT22;38468;48.114;-1.684;2023-03-03T03:20:52;5.60;70.90
52575;DHT22;38468;48.114;-1.684;2023-03-03T03:22:53;5.50;71.00
52575;DHT22;38468;48.114;-1.684;2023-03-03T03:24:53;5.50;71.20
52575;DHT22;38468;48.114;-1.684;2023-03-03T03:26:54;5.40;71.40
52575;DHT22;38468;48.114;-1.684;2023-03-03T03:28:55;5.40;71.40
52575;DHT22;38468;48.114;-1.684;2023-03-03T03:30:56;5.50;71.50
52575;DHT22;38468;48.114;-1.684;2023-03-03T03:32:57;5.40;71.40
52575;DHT22;38468;48.114;-1.684;2023-03-03T03:34:57;5.40;71.60
52575;DHT22;38468;48.114;-1.684;2023-03-03T03:36:58;5.40;71.50
52575;DHT22;38468;48.114;-1.684;2023-03-03T03:38:58;5.40;71.40
52575;DHT22;38468;48.114;-1.684;2023-03-03T03:41:02;5.50;71.30
52575;DHT22;38468;48.114;-1.684;2023-03-03T03:43:03;5.50;71.10
52575;DHT22;38468;48.114;-1.684;2023-03-03T03:45:05;5.40;71.20
52575;DHT22;38468;48.114;-1.684;2023-03-03T03:47:06;5.40;71.40
52575;DHT22;38468;48.114;-1.684;2023-03-03T03:49:06;5.40;71.40
52575;DHT22;38468;48.114;-1.684;2023-03-03T03:51:07;5.40;71.30
52575;DHT22;38468;48.114;-1.684;2023-03-03T03:53:09;5.40;71.40
52575;DHT22;38468;48.114;-1.684;2023-03-03T03:55:10;5.40;71.40
52575;DHT22;38468;48.114;-1.684;2023-03-03T03:57:10;5.40;71.50
52575;DHT22;38468;48.114;-1.684;2023-03-03T03:59:11;5.40;71.60
52575;DHT22;38468;48.114;-1.684;2023-03-03T04:01:12;5.40;71.50
52575;DHT22;38468;48.114;-1.684;2023-03-03T04:03:13;5.40;71.60
52575;DHT22;38468;48.114;-1.684;2023-03-03T04:05:13;5.40;71.60
52575;DHT22;38468;48.114;-1.684;2023-03-03T04:07:14;5.40;71.70
52575;DHT22;38468;48.114;-1.684;2023-03-03T04:09:15;5.30;71.50
52575;DHT22;38468;48.114;-1.684;2023-03-03T04:11:15;5.30;71.60
52575;DHT22;38468;48.114;-1.684;2023-03-03T04:13:16;5.40;71.60
52575;DHT22;38468;48.114;-1.684;2023-03-03T04:15:17;5.20;71.60
52575;DHT22;38468;48.114;-1.684;2023-03-03T04:17:19;5.20;71.70
52575;DHT22;38468;48.114;-1.684;2023-03-03T04:19:20;5.30;71.70
52575;DHT22;38468;48.114;-1.684;2023-03-03T04:21:20;5.40;71.70
52575;DHT22;38468;48.114;-1.684;2023-03-03T04:23:21;5.40;71.60
52575;DHT22;38468;48.114;-1.684;2023-03-03T04:25:22;5.30;71.60
52575;DHT22;38468;48.114;-1.684;2023-03-03T04:27:23;5.30;71.70
52575;DHT22;38468;48.114;-1.684;2023-03-03T04:29:23;5.20;71.70
52575;DHT22;38468;48.114;-1.684;2023-03-03T04:31:24;5.20;71.70
52575;DHT22;38468;48.114;-1.684;2023-03-03T04:33:25;5.30;71.70
52575;DHT22;38468;48.114;-1.684;2023-03-03T04:35:26;5.30;71.60
52575;DHT22;38468;48.114;-1.684;2023-03-03T04:37:26;5.20;71.70
52575;DHT22;38468;48.114;-1.684;2023-03-03T04:39:28;5.20;71.80
52575;DHT22;38468;48.114;-1.684;2023-03-03T04:41:28;5.20;71.80
52575;DHT22;38468;48.114;-1.684;2023-03-03T04:43:29;5.30;71.80
52575;DHT22;38468;48.114;-1.684;2023-03-03T04:45:29;5.20;71.70
52575;DHT22;38468;48.114;-1.684;2023-03-03T04:47:31;5.20;71.80
52575;DHT22;38468;48.114;-1.684;2023-03-03T04:49:32;5.20;71.80
52575;DHT22;38468;48.114;-1.684;2023-03-03T04:51:33;5.20;71.90
52575;DHT22;38468;48.114;-1.684;2023-03-03T04:53:33;5.10;71.90
52575;DHT22;38468;48.114;-1.684;2023-03-03T04:55:36;5.10;71.90
52575;DHT22;38468;48.114;-1.684;2023-03-03T04:57:37;5.10;72.00
52575;DHT22;38468;48.114;-1.684;2023-03-03T04:59:38;5.10;72.10
52575;DHT22;38468;48.114;-1.684;2023-03-03T05:01:38;5.10;72.10
52575;DHT22;38468;48.114;-1.684;2023-03-03T05:03:40;5.00;72.10
52575;DHT22;38468;48.114;-1.684;2023-03-03T05:05:40;5.00;72.30
52575;DHT22;38468;48.114;-1.684;2023-03-03T05:07:41;5.00;72.30
52575;DHT22;38468;48.114;-1.684;2023-03-03T05:09:42;5.00;72.50
52575;DHT22;38468;48.114;-1.684;2023-03-03T05:11:42;4.90;72.50
52575;DHT22;38468;48.114;-1.684;2023-03-03T05:13:43;4.90;72.70
52575;DHT22;38468;48.114;-1.684;2023-03-03T05:15:52;4.90;72.90
52575;DHT22;38468;48.114;-1.684;2023-03-03T05:17:54;4.90;72.90
52575;DHT22;38468;48.114;-1.684;2023-03-03T05:19:55;4.90;72.90
52575;DHT22;38468;48.114;-1.684;2023-03-03T05:21:56;4.90;72.90
52575;DHT22;38468;48.114;-1.684;2023-03-03T05:23:58;5.00;72.90
52575;DHT22;38468;48.114;-1.684;2023-03-03T05:25:58;4.90;73.00
52575;DHT22;38468;48.114;-1.684;2023-03-03T05:27:59;4.90;73.20
52575;DHT22;38468;48.114;-1.684;2023-03-03T05:30:00;4.90;73.10
52575;DHT22;38468;48.114;-1.684;2023-03-03T05:32:00;5.00;73.00
52575;DHT22;38468;48.114;-1.684;2023-03-03T05:34:01;5.00;73.00
52575;DHT22;38468;48.114;-1.684;2023-03-03T05:36:02;5.00;73.00
52575;DHT22;38468;48.114;-1.684;2023-03-03T05:38:02;5.00;73.10
52575;DHT22;38468;48.114;-1.684;2023-03-03T05:40:03;5.00;73.20
52575;DHT22;38468;48.114;-1.684;2023-03-03T05:42:04;5.00;73.30
52575;DHT22;38468;48.114;-1.684;2023-03-03T05:44:05;4.90;73.30
52575;DHT22;38468;48.114;-1.684;2023-03-03T05:46:06;4.90;73.50
52575;DHT22;38468;48.114;-1.684;2023-03-03T05:48:07;4.90;73.40
52575;DHT22;38468;48.114;-1.684;2023-03-03T05:50:09;4.90;73.50
52575;DHT22;38468;48.114;-1.684;2023-03-03T05:52:11;4.90;73.60
52575;DHT22;38468;48.114;-1.684;2023-03-03T05:54:12;4.90;73.60
52575;DHT22;38468;48.114;-1.684;2023-03-03T05:56:12;4.90;73.60
52575;DHT22;38468;48.114;-1.684;2023-03-03T05:58:13;4.80;73.70
52575;DHT22;38468;48.114;-1.684;2023-03-03T06:00:15;4.90;73.70
52575;DHT22;38468;48.114;-1.684;2023-03-03T06:02:16;4.90;73.80
52575;DHT22;38468;48.114;-1.684;2023-03-03T06:04:17;4.80;73.90
52575;DHT22;38468;48.114;-1.684;2023-03-03T06:06:17;4.80;73.90
52575;DHT22;38468;48.114;-1.684;2023-03-03T06:08:18;4.80;74.00
52575;DHT22;38468;48.114;-1.684;2023-03-03T06:10:19;4.80;74.10
52575;DHT22;38468;48.114;-1.684;2023-03-03T06:12:19;4.80;74.10
52575;DHT22;38468;48.114;-1.684;2023-03-03T06:14:22;4.80;74.10
52575;DHT22;38468;48.114;-1.684;2023-03-03T06:16:22;4.80;74.10
52575;DHT22;38468;48.114;-1.684;2023-03-03T06:18:23;4.80;74.20
52575;DHT22;38468;48.114;-1.684;2023-03-03T06:20:24;4.70;74.30
52575;DHT22;38468;48.114;-1.684;2023-03-03T06:22:24;4.60;74.60
52575;DHT22;38468;48.114;-1.684;2023-03-03T06:24:25;4.60;74.70
52575;DHT22;38468;48.114;-1.684;2023-03-03T06:26:31;4.70;74.50
52575;DHT22;38468;48.114;-1.684;2023-03-03T06:28:31;4.70;74.50
52575;DHT22;38468;48.114;-1.684;2023-03-03T06:30:32;4.60;74.50
52575;DHT22;38468;48.114;-1.684;2023-03-03T06:32:33;4.60;74.70
52575;DHT22;38468;48.114;-1.684;2023-03-03T06:34:33;4.60;74.90
52575;DHT22;38468;48.114;-1.684;2023-03-03T06:36:34;4.50;74.80
52575;DHT22;38468;48.114;-1.684;2023-03-03T06:38:35;4.60;74.90
52575;DHT22;38468;48.114;-1.684;2023-03-03T06:40:35;4.50;74.80
52575;DHT22;38468;48.114;-1.684;2023-03-03T06:42:36;4.40;75.00
52575;DHT22;38468;48.114;-1.684;2023-03-03T06:44:36;4.50;75.20
52575;DHT22;38468;48.114;-1.684;2023-03-03T06:46:37;4.50;75.00
52575;DHT22;38468;48.114;-1.684;2023-03-03T06:48:38;4.60;75.00
52575;DHT22;38468;48.114;-1.684;2023-03-03T06:50:40;4.60;74.90
52575;DHT22;38468;48.114;-1.684;2023-03-03T06:52:41;4.50;74.90
52575;DHT22;38468;48.114;-1.684;2023-03-03T06:54:42;4.40;75.00
52575;DHT22;38468;48.114;-1.684;2023-03-03T06:56:44;4.40;75.20
52575;DHT22;38468;48.114;-1.684;2023-03-03T06:58:45;4.40;75.20
52575;DHT22;38468;48.114;-1.684;2023-03-03T07:01:15;4.40;75.30
52575;DHT22;38468;48.114;-1.684;2023-03-03T07:03:18;4.40;75.30
52575;DHT22;38468;48.114;-1.684;2023-03-03T07:05:23;4.40;75.10
52575;DHT22;38468;48.114;-1.684;2023-03-03T07:07:25;4.40;75.20
52575;DHT22;38468;48.114;-1.684;2023-03-03T07:09:28;4.50;75.20
52575;DHT22;38468;48.114;-1.684;2023-03-03T07:11:29;4.40;75.20
52575;DHT22;38468;48.114;-1.684;2023-03-03T07:13:31;4.40;75.10
52575;DHT22;38468;48.114;-1.684;2023-03-03T07:15:34;4.50;75.10
52575;DHT22;38468;48.114;-1.684;2023-03-03T07:17:38;4.40;75.00
52575;DHT22;38468;48.114;-1.684;2023-03-03T07:19:42;4.50;75.10
52575;DHT22;38468;48.114;-1.684;2023-03-03T07:21:43;4.50;75.20
52575;DHT22;38468;48.114;-1.684;2023-03-03T07:23:46;4.60;75.00
52575;DHT22;38468;48.114;-1.684;2023-03-03T07:25:47;4.60;75.00
52575;DHT22;38468;48.114;-1.684;2023-03-03T07:27:48;4.60;75.00
52575;DHT22;38468;48.114;-1.684;2023-03-03T07:29:51;4.70;75.00
52575;DHT22;38468;48.114;-1.684;2023-03-03T07:31:56;4.60;74.80
52575;DHT22;38468;48.114;-1.684;2023-03-03T07:33:59;4.70;74.90
52575;DHT22;38468;48.114;-1.684;2023-03-03T07:36:01;4.80;74.90
52575;DHT22;38468;48.114;-1.684;2023-03-03T07:42:41;5.00;74.30
52575;DHT22;38468;48.114;-1.684;2023-03-03T07:44:43;5.10;74.10
52575;DHT22;38468;48.114;-1.684;2023-03-03T07:46:46;5.20;73.80
52575;DHT22;38468;48.114;-1.684;2023-03-03T07:48:48;5.50;73.50
52575;DHT22;38468;48.114;-1.684;2023-03-03T07:50:49;5.90;72.50
52575;DHT22;38468;48.114;-1.684;2023-03-03T07:53:00;6.30;71.40
52575;DHT22;38468;48.114;-1.684;2023-03-03T07:55:17;6.50;70.20
52575;DHT22;38468;48.114;-1.684;2023-03-03T07:57:35;6.60;69.30
52575;DHT22;38468;48.114;-1.684;2023-03-03T07:59:44;6.80;69.10
52575;DHT22;38468;48.114;-1.684;2023-03-03T08:01:46;6.90;68.30
52575;DHT22;38468;48.114;-1.684;2023-03-03T08:03:50;7.10;68.00
52575;DHT22;38468;48.114;-1.684;2023-03-03T08:05:51;7.40;67.20
52575;DHT22;38468;48.114;-1.684;2023-03-03T08:07:52;7.70;66.40
52575;DHT22;38468;48.114;-1.684;2023-03-03T08:10:00;8.10;65.40
52575;DHT22;38468;48.114;-1.684;2023-03-03T08:12:39;8.50;64.20
52575;DHT22;38468;48.114;-1.684;2023-03-03T08:14:39;8.90;62.80
52575;DHT22;38468;48.114;-1.684;2023-03-03T08:16:39;9.30;61.60
52575;DHT22;38468;48.114;-1.684;2023-03-03T08:18:49;9.70;60.60
52575;DHT22;38468;48.114;-1.684;2023-03-03T08:20:52;10.00;59.70
52575;DHT22;38468;48.114;-1.684;2023-03-03T08:22:53;10.30;58.90
52575;DHT22;38468;48.114;-1.684;2023-03-03T08:24:54;10.40;58.30
52575;DHT22;38468;48.114;-1.684;2023-03-03T08:26:55;10.30;58.10
52575;DHT22;38468;48.114;-1.684;2023-03-03T08:28:55;10.10;58.20
52575;DHT22;38468;48.114;-1.684;2023-03-03T08:30:56;10.30;58.50
52575;DHT22;38468;48.114;-1.684;2023-03-03T08:32:57;10.60;57.90
52575;DHT22;38468;48.114;-1.684;2023-03-03T08:34:57;10.90;57.00
52575;DHT22;38468;48.114;-1.684;2023-03-03T08:36:58;11.00;56.40
52575;DHT22;38468;48.114;-1.684;2023-03-03T08:38:59;11.40;56.10
52575;DHT22;38468;48.114;-1.684;2023-03-03T08:40:59;11.60;55.50
52575;DHT22;38468;48.114;-1.684;2023-03-03T08:43:00;10.90;55.80
52575;DHT22;38468;48.114;-1.684;2023-03-03T08:45:01;11.30;56.50
52575;DHT22;38468;48.114;-1.684;2023-03-03T08:47:01;11.60;56.20
52575;DHT22;38468;48.114;-1.684;2023-03-03T08:49:02;12.20;54.50
52575;DHT22;38468;48.114;-1.684;2023-03-03T08:51:03;12.50;53.40
52575;DHT22;38468;48.114;-1.684;2023-03-03T08:53:05;12.90;53.50
52575;DHT22;38468;48.114;-1.684;2023-03-03T08:55:06;13.10;52.60
52575;DHT22;38468;48.114;-1.684;2023-03-03T08:57:07;13.20;51.90
52575;DHT22;38468;48.114;-1.684;2023-03-03T08:59:08;13.30;51.80
52575;DHT22;38468;48.114;-1.684;2023-03-03T09:01:08;13.40;51.70
52575;DHT22;38468;48.114;-1.684;2023-03-03T09:03:09;13.80;50.60
52575;DHT22;38468;48.114;-1.684;2023-03-03T09:05:10;13.90;50.10
52575;DHT22;38468;48.114;-1.684;2023-03-03T09:07:11;13.90;50.00
52575;DHT22;38468;48.114;-1.684;2023-03-03T09:09:12;14.00;49.60
52575;DHT22;38468;48.114;-1.684;2023-03-03T09:11:13;14.30;49.00
52575;DHT22;38468;48.114;-1.684;2023-03-03T09:13:16;14.40;48.70
52575;DHT22;38468;48.114;-1.684;2023-03-03T09:15:25;14.60;48.10
52575;DHT22;38468;48.114;-1.684;2023-03-03T09:17:32;14.70;47.70
52575;DHT22;38468;48.114;-1.684;2023-03-03T09:19:36;14.50;48.20
52575;DHT22;38468;48.114;-1.684;2023-03-03T09:21:36;14.40;48.60
52575;DHT22;38468;48.114;-1.684;2023-03-03T09:23:41;14.50;48.10
52575;DHT22;38468;48.114;-1.684;2023-03-03T09:25:43;14.50;48.40
52575;DHT22;38468;48.114;-1.684;2023-03-03T09:27:44;14.40;48.50
52575;DHT22;38468;48.114;-1.684;2023-03-03T09:29:45;14.40;49.20
52575;DHT22;38468;48.114;-1.684;2023-03-03T09:31:51;14.40;49.10
52575;DHT22;38468;48.114;-1.684;2023-03-03T09:33:52;14.40;49.30
52575;DHT22;38468;48.114;-1.684;2023-03-03T09:36:02;13.40;49.60
52575;DHT22;38468;48.114;-1.684;2023-03-03T09:38:30;13.30;50.50
52575;DHT22;38468;48.114;-1.684;2023-03-03T09:40:46;13.50;50.60
52575;DHT22;38468;48.114;-1.684;2023-03-03T09:49:18;13.30;51.20
52575;DHT22;38468;48.114;-1.684;2023-03-03T10:02:46;13.20;50.90
52575;DHT22;38468;48.114;-1.684;2023-03-03T10:05:03;12.20;52.50
52575;DHT22;38468;48.114;-1.684;2023-03-03T10:07:16;11.90;53.60
52575;DHT22;38468;48.114;-1.684;2023-03-03T10:18:41;12.30;52.90
52575;DHT22;38468;48.114;-1.684;2023-03-03T10:25:59;12.10;54.20
52575;DHT22;38468;48.114;-1.684;2023-03-03T10:30:20;12.20;53.30
52575;DHT22;38468;48.114;-1.684;2023-03-03T10:32:45;12.20;53.70
52575;DHT22;38468;48.114;-1.684;2023-03-03T10:40:08;12.90;52.90
52575;DHT22;38468;48.114;-1.684;2023-03-03T10:42:29;13.20;51.60
52575;DHT22;38468;48.114;-1.684;2023-03-03T10:45:01;13.60;50.80
52575;DHT22;38468;48.114;-1.684;2023-03-03T10:54:56;14.70;47.70
52575;DHT22;38468;48.114;-1.684;2023-03-03T10:59:34;15.20;47.60
52575;DHT22;38468;48.114;-1.684;2023-03-03T11:15:36;15.50;44.40
52575;DHT22;38468;48.114;-1.684;2023-03-03T11:20:37;15.50;44.30
52575;DHT22;38468;48.114;-1.684;2023-03-03T11:22:50;15.50;45.70
52575;DHT22;38468;48.114;-1.684;2023-03-03T11:27:39;16.10;43.70
52575;DHT22;38468;48.114;-1.684;2023-03-03T11:34:32;15.60;44.60
52575;DHT22;38468;48.114;-1.684;2023-03-03T11:36:40;15.50;44.30
52575;DHT22;38468;48.114;-1.684;2023-03-03T11:39:02;15.70;44.60
52575;DHT22;38468;48.114;-1.684;2023-03-03T11:43:45;15.50;45.00
52575;DHT22;38468;48.114;-1.684;2023-03-03T11:45:51;15.50;44.60
52575;DHT22;38468;48.114;-1.684;2023-03-03T11:48:07;15.50;44.20
52575;DHT22;38468;48.114;-1.684;2023-03-03T11:55:26;15.90;43.20
52575;DHT22;38468;48.114;-1.684;2023-03-03T12:01:35;16.20;42.80
52575;DHT22;38468;48.114;-1.684;2023-03-03T12:05:59;16.60;42.90
52575;DHT22;38468;48.114;-1.684;2023-03-03T12:16:55;17.40;40.50
52575;DHT22;38468;48.114;-1.684;2023-03-03T12:19:28;17.80;40.60
52575;DHT22;38468;48.114;-1.684;2023-03-03T12:28:34;18.00;38.80
52575;DHT22;38468;48.114;-1.684;2023-03-03T12:40:23;18.70;36.90
52575;DHT22;38468;48.114;-1.684;2023-03-03T12:42:35;18.90;36.10
52575;DHT22;38468;48.114;-1.684;2023-03-03T12:44:46;18.70;35.80
52575;DHT22;38468;48.114;-1.684;2023-03-03T12:49:19;19.00;35.70
52575;DHT22;38468;48.114;-1.684;2023-03-03T12:51:30;19.00;35.50
52575;DHT22;38468;48.114;-1.684;2023-03-03T12:53:43;19.40;35.30
52575;DHT22;38468;48.114;-1.684;2023-03-03T12:56:00;19.00;35.80
52575;DHT22;38468;48.114;-1.684;2023-03-03T13:00:36;19.50;35.30
52575;DHT22;38468;48.114;-1.684;2023-03-03T13:14:33;20.70;32.30
52575;DHT22;38468;48.114;-1.684;2023-03-03T13:16:44;20.90;31.70
52575;DHT22;38468;48.114;-1.684;2023-03-03T13:19:13;21.00;31.90
52575;DHT22;38468;48.114;-1.684;2023-03-03T13:21:25;20.80;31.70
52575;DHT22;38468;48.114;-1.684;2023-03-03T13:25:49;21.30;31.60
52575;DHT22;38468;48.114;-1.684;2023-03-03T13:27:54;21.50;31.10
52575;DHT22;38468;48.114;-1.684;2023-03-03T13:30:19;21.20;30.90
52575;DHT22;38468;48.114;-1.684;2023-03-03T13:32:23;21.20;30.50
52575;DHT22;38468;48.114;-1.684;2023-03-03T13:34:36;21.50;30.30
52575;DHT22;38468;48.114;-1.684;2023-03-03T13:36:41;21.30;30.10
52575;DHT22;38468;48.114;-1.684;2023-03-03T13:38:50;21.10;30.60
52575;DHT22;38468;48.114;-1.684;2023-03-03T13:43:44;21.70;30.50
52575;DHT22;38468;48.114;-1.684;2023-03-03T13:50:27;22.00;29.00
52575;DHT22;38468;48.114;-1.684;2023-03-03T13:52:32;22.10;29.50
52575;DHT22;38468;48.114;-1.684;2023-03-03T13:59:38;22.10;29.70
52575;DHT22;38468;48.114;-1.684;2023-03-03T14:06:19;21.80;29.50
52575;DHT22;38468;48.114;-1.684;2023-03-03T14:11:22;22.00;29.50
52575;DHT22;38468;48.114;-1.684;2023-03-03T14:14:08;21.50;29.50
52575;DHT22;38468;48.114;-1.684;2023-03-03T14:18:57;21.50;29.70
52575;DHT22;38468;48.114;-1.684;2023-03-03T14:21:15;21.30;29.80
52575;DHT22;38468;48.114;-1.684;2023-03-03T14:23:23;21.20;29.50
52575;DHT22;38468;48.114;-1.684;2023-03-03T14:25:24;21.00;30.50
52575;DHT22;38468;48.114;-1.684;2023-03-03T14:27:33;20.80;30.30
52575;DHT22;38468;48.114;-1.684;2023-03-03T14:29:34;21.00;30.50
52575;DHT22;38468;48.114;-1.684;2023-03-03T14:31:39;20.50;30.90
52575;DHT22;38468;48.114;-1.684;2023-03-03T14:33:46;20.50;31.70
52575;DHT22;38468;48.114;-1.684;2023-03-03T14:38:12;20.20;31.60
52575;DHT22;38468;48.114;-1.684;2023-03-03T14:40:20;19.90;30.90
52575;DHT22;38468;48.114;-1.684;2023-03-03T14:42:33;19.50;31.80
52575;DHT22;38468;48.114;-1.684;2023-03-03T14:46:46;19.40;31.80
52575;DHT22;38468;48.114;-1.684;2023-03-03T14:49:02;19.40;31.50
52575;DHT22;38468;48.114;-1.684;2023-03-03T14:51:23;19.00;32.10
52575;DHT22;38468;48.114;-1.684;2023-03-03T14:53:34;18.90;32.50
52575;DHT22;38468;48.114;-1.684;2023-03-03T14:55:38;19.00;32.30
52575;DHT22;38468;48.114;-1.684;2023-03-03T14:57:41;19.00;32.50
52575;DHT22;38468;48.114;-1.684;2023-03-03T15:04:24;19.00;32.40
52575;DHT22;38468;48.114;-1.684;2023-03-03T15:06:37;18.80;32.60
52575;DHT22;38468;48.114;-1.684;2023-03-03T15:08:40;18.70;33.00
52575;DHT22;38468;48.114;-1.684;2023-03-03T15:10:43;18.60;32.80
52575;DHT22;38468;48.114;-1.684;2023-03-03T15:12:44;18.80;32.70
52575;DHT22;38468;48.114;-1.684;2023-03-03T15:14:47;18.80;32.30
52575;DHT22;38468;48.114;-1.684;2023-03-03T15:16:48;18.70;32.30
52575;DHT22;38468;48.114;-1.684;2023-03-03T15:21:09;18.30;32.80
52575;DHT22;38468;48.114;-1.684;2023-03-03T15:28:05;18.30;32.30
52575;DHT22;38468;48.114;-1.684;2023-03-03T15:30:22;18.00;32.70
52575;DHT22;38468;48.114;-1.684;2023-03-03T15:33:03;18.20;32.40
52575;DHT22;38468;48.114;-1.684;2023-03-03T15:37:55;18.00;32.40
52575;DHT22;38468;48.114;-1.684;2023-03-03T16:02:51;16.90;33.20
52575;DHT22;38468;48.114;-1.684;2023-03-03T16:05:07;17.00;33.10
52575;DHT22;38468;48.114;-1.684;2023-03-03T16:07:36;17.00;33.20
52575;DHT22;38468;48.114;-1.684;2023-03-03T16:12:07;17.00;33.00
52575;DHT22;38468;48.114;-1.684;2023-03-03T16:16:36;16.60;32.80
52575;DHT22;38468;48.114;-1.684;2023-03-03T16:28:18;16.40;33.20
52575;DHT22;38468;48.114;-1.684;2023-03-03T16:30:30;16.40;33.10
52575;DHT22;38468;48.114;-1.684;2023-03-03T16:32:40;16.10;33.60
52575;DHT22;38468;48.114;-1.684;2023-03-03T16:37:17;16.00;34.60
52575;DHT22;38468;48.114;-1.684;2023-03-03T16:39:52;15.90;35.10
52575;DHT22;38468;48.114;-1.684;2023-03-03T16:42:02;15.80;36.40
52575;DHT22;38468;48.114;-1.684;2023-03-03T16:46:38;15.50;37.10
52575;DHT22;38468;48.114;-1.684;2023-03-03T16:51:27;15.30;38.00
52575;DHT22;38468;48.114;-1.684;2023-03-03T17:00:29;14.70;39.50
52575;DHT22;38468;48.114;-1.684;2023-03-03T17:03:02;14.50;39.00
52575;DHT22;38468;48.114;-1.684;2023-03-03T17:12:43;14.40;41.20
52575;DHT22;38468;48.114;-1.684;2023-03-03T17:17:00;14.00;42.80
52575;DHT22;38468;48.114;-1.684;2023-03-03T17:19:20;13.90;42.90
52575;DHT22;38468;48.114;-1.684;2023-03-03T17:21:51;13.70;44.00